createdAt,value
2019-01-12T00:00:03.026Z,1024.24
2019-01-12T00:05:03.060Z,1024.26
2019-01-12T00:10:02.480Z,1024.21
2019-01-12T00:15:02.814Z,1024.16
2019-01-12T00:20:03.296Z,1024.17
2019-01-12T00:25:02.717Z,1024.07
2019-01-12T00:30:03.130Z,1024.14
2019-01-12T00:35:02.529Z,1024.15
2019-01-12T00:40:02.908Z,1024.12
2019-01-12T00:45:03.337Z,1024.06
2019-01-12T00:50:02.745Z,1024.0
2019-01-12T00:55:03.096Z,1023.94
2019-01-12T01:00:02.509Z,1023.94
2019-01-12T01:05:02.845Z,1023.93
2019-01-12T01:10:03.288Z,1023.96
2019-01-12T01:15:02.713Z,1023.91
2019-01-12T01:20:03.056Z,1023.89
2019-01-12T01:25:02.480Z,1023.89
2019-01-12T01:30:02.108Z,1023.91
2019-01-12T01:35:02.540Z,1023.93
2019-01-12T01:40:02.983Z,1023.91
2019-01-12T01:45:02.406Z,1023.92
2019-01-12T01:50:02.848Z,1023.85
2019-01-12T01:55:03.292Z,1023.79
2019-01-12T02:00:02.695Z,1023.78
2019-01-12T02:05:03.052Z,1023.79
2019-01-12T02:10:02.463Z,1023.79
2019-01-12T02:15:02.851Z,1023.75
2019-01-12T02:20:03.256Z,1023.66
2019-01-12T02:25:02.617Z,1023.59
2019-01-12T02:30:03.015Z,1023.57
2019-01-12T02:35:02.430Z,1023.56
2019-01-12T02:40:02.875Z,1023.53
2019-01-12T02:45:03.224Z,1023.49
2019-01-12T02:50:02.622Z,1023.35
2019-01-12T02:55:08.677Z,1023.35
2019-01-12T03:00:02.593Z,1023.36
2019-01-12T03:05:02.938Z,1023.29
2019-01-12T03:10:02.361Z,1023.15
2019-01-12T03:15:02.697Z,1023.07
2019-01-12T03:20:03.078Z,1023.07
2019-01-12T03:25:02.497Z,1022.99
2019-01-12T03:30:02.833Z,1022.96
2019-01-12T03:35:03.331Z,1022.84
2019-01-12T03:40:02.768Z,1022.83
2019-01-12T03:45:03.212Z,1022.8
2019-01-12T03:50:02.618Z,1022.75
2019-01-12T03:55:02.969Z,1022.74
2019-01-12T04:00:03.410Z,1022.65
2019-01-12T04:05:02.848Z,1022.7
2019-01-12T04:10:03.656Z,1022.61
2019-01-12T04:15:02.335Z,1022.59
2019-01-12T04:20:02.719Z,1022.57
2019-01-12T04:25:03.070Z,1022.56
2019-01-12T04:30:02.485Z,1022.5
2019-01-12T04:35:02.835Z,1022.5
2019-01-12T04:40:03.298Z,1022.52
2019-01-12T04:45:02.689Z,1022.46
2019-01-12T04:50:03.179Z,1022.34
2019-01-12T04:55:02.582Z,1022.29
2019-01-12T05:00:03.011Z,1022.3
2019-01-12T05:05:02.653Z,1022.27
2019-01-12T05:10:03.066Z,1022.27
2019-01-12T05:15:02.479Z,1022.23
2019-01-12T05:20:02.825Z,1022.18
2019-01-12T05:25:03.288Z,1022.02
2019-01-12T05:30:02.994Z,1022.15
2019-01-12T05:35:02.410Z,1022.05
2019-01-12T05:40:02.870Z,1022.06
2019-01-12T05:45:03.346Z,1021.95
2019-01-12T05:50:02.743Z,1021.99
2019-01-12T05:55:03.166Z,1021.86
2019-01-12T06:00:02.572Z,1021.81
2019-01-12T06:05:02.924Z,1021.81
2019-01-12T06:10:02.338Z,1021.79
2019-01-12T06:15:02.679Z,1021.67
2019-01-12T06:20:03.023Z,1021.62
2019-01-12T06:25:02.445Z,1021.47
2019-01-12T06:30:02.887Z,1021.39
2019-01-12T06:35:03.239Z,1021.3
2019-01-12T06:40:02.645Z,1021.18
2019-01-12T06:45:03.016Z,1021.08
2019-01-12T06:50:02.402Z,1021.09
2019-01-12T06:55:02.784Z,1020.99
2019-01-12T07:00:03.192Z,1020.99
2019-01-12T07:05:02.614Z,1020.88
2019-01-12T07:10:03.052Z,1020.85
2019-01-12T07:15:02.480Z,1020.78
2019-01-12T07:20:02.018Z,1020.72
2019-01-12T07:25:01.676Z,1020.66
2019-01-12T07:30:03.085Z,1020.55
2019-01-12T07:35:02.509Z,1020.53
2019-01-12T07:40:02.944Z,1020.6
2019-01-12T07:45:03.291Z,1020.4
2019-01-12T07:50:02.700Z,1020.47
2019-01-12T07:55:03.155Z,1020.48
2019-01-12T08:00:02.572Z,1020.4
2019-01-12T08:05:02.923Z,1020.37
2019-01-12T08:10:02.332Z,1020.3
2019-01-12T08:15:02.775Z,1020.27
2019-01-12T08:20:03.259Z,1020.25
2019-01-12T08:25:02.665Z,1020.44
2019-01-12T08:30:03.080Z,1020.32
2019-01-12T08:35:02.500Z,1020.13
2019-01-12T08:40:02.947Z,1020.01
2019-01-12T08:45:03.389Z,1019.93
2019-01-12T08:50:02.811Z,1020.0
2019-01-12T08:55:03.259Z,1019.99
2019-01-12T09:00:02.785Z,1019.82
2019-01-12T09:05:03.219Z,1019.74
2019-01-12T09:10:02.624Z,1019.64
2019-01-12T09:15:03.075Z,1019.38
2019-01-12T09:20:02.490Z,1019.21
2019-01-12T09:25:02.918Z,1019.26
2019-01-12T09:30:03.390Z,1019.23
2019-01-12T09:35:02.790Z,1019.19
2019-01-12T09:40:03.249Z,1019.16
2019-01-12T09:45:01.774Z,1019.11
2019-01-12T09:50:03.210Z,1018.97
2019-01-12T09:55:02.616Z,1018.84
2019-01-12T10:00:02.967Z,1018.82
2019-01-12T10:05:02.383Z,1018.49
2019-01-12T10:10:02.826Z,1018.63
2019-01-12T10:15:03.208Z,1018.54
2019-01-12T10:20:02.583Z,1018.44
2019-01-12T10:25:02.964Z,1018.38
2019-01-12T10:30:03.394Z,1018.2
2019-01-12T10:35:02.784Z,1018.16
2019-01-12T10:40:03.234Z,1018.06
2019-01-12T10:45:02.693Z,1017.92
2019-01-12T10:50:03.106Z,1017.89
2019-01-12T10:55:02.523Z,1017.8
2019-01-12T11:00:02.967Z,1017.72
2019-01-12T11:05:03.310Z,1017.59
2019-01-12T11:10:04.292Z,1017.57
2019-01-12T11:15:02.957Z,1017.41
2019-01-12T11:20:03.304Z,1017.3
2019-01-12T11:25:02.723Z,1017.2
2019-01-12T11:30:03.065Z,1017.17
2019-01-12T11:35:02.480Z,1017.07
2019-01-12T11:40:02.993Z,1016.96
2019-01-12T11:45:02.445Z,1016.8
2019-01-12T11:50:02.893Z,1016.73
2019-01-12T11:55:03.233Z,1016.55
2019-01-12T12:00:02.651Z,1016.51
2019-01-12T12:05:03.097Z,1016.25
2019-01-12T12:10:02.481Z,1016.11
2019-01-12T12:15:02.906Z,1015.99
2019-01-12T12:20:02.489Z,1015.96
2019-01-12T12:25:02.934Z,1015.75
2019-01-12T12:30:03.362Z,1015.73
2019-01-12T12:35:02.702Z,1015.62
2019-01-12T12:40:03.121Z,1015.49
2019-01-12T12:45:02.530Z,1015.52
2019-01-12T12:50:02.868Z,1015.31
2019-01-12T12:55:03.220Z,1015.23
2019-01-12T13:00:02.632Z,1015.11
2019-01-12T13:05:03.013Z,1014.95
2019-01-12T13:10:02.500Z,1014.95
2019-01-12T13:15:02.885Z,1014.85
2019-01-12T13:20:03.217Z,1014.72
2019-01-12T13:25:02.596Z,1014.65
2019-01-12T13:30:02.950Z,1014.56
2019-01-12T13:35:03.288Z,1014.48
2019-01-12T13:40:02.695Z,1014.48
2019-01-12T13:45:03.042Z,1014.39
2019-01-12T13:50:02.464Z,1014.29
2019-01-12T13:55:02.911Z,1014.22
2019-01-12T14:00:03.246Z,1014.21
2019-01-12T14:05:02.686Z,1014.2
2019-01-12T14:10:03.153Z,1014.07
2019-01-12T14:15:02.559Z,1014.15
2019-01-12T14:20:02.999Z,1014.16
2019-01-12T14:25:02.436Z,1014.18
2019-01-12T14:30:02.841Z,1014.15
2019-01-12T14:35:03.177Z,1014.16
2019-01-12T14:40:02.586Z,1014.14
2019-01-12T14:45:02.934Z,1014.25
2019-01-12T14:50:03.275Z,1014.28
2019-01-12T14:55:02.697Z,1014.32
2019-01-12T15:00:03.143Z,1014.37
2019-01-12T15:05:01.775Z,1014.32
2019-01-12T15:10:03.199Z,1014.4
2019-01-12T15:15:02.539Z,1014.18
2019-01-12T15:20:02.972Z,1014.28
2019-01-12T15:25:02.385Z,1014.01
2019-01-12T15:30:02.703Z,1013.99
2019-01-12T15:35:03.071Z,1014.11
2019-01-12T15:40:02.482Z,1013.97
2019-01-12T15:45:02.830Z,1013.97
2019-01-12T15:50:03.205Z,1013.86
2019-01-12T15:55:02.624Z,1013.99
2019-01-12T16:00:03.030Z,1013.99
2019-01-12T16:05:02.452Z,1013.82
2019-01-12T16:10:02.893Z,1013.76
2019-01-12T16:15:03.255Z,1013.83
2019-01-12T16:20:02.644Z,1013.84
2019-01-12T16:25:03.008Z,1013.76
2019-01-12T16:30:02.408Z,1013.67
2019-01-12T16:35:02.754Z,1013.6
2019-01-12T16:40:03.201Z,1013.56
2019-01-12T16:45:02.612Z,1013.5
2019-01-12T16:50:02.956Z,1013.54
2019-01-12T16:55:03.336Z,1013.45
2019-01-12T17:00:02.751Z,1013.37
2019-01-12T17:05:03.159Z,1013.35
2019-01-12T17:10:02.581Z,1013.4
2019-01-12T17:15:02.932Z,1013.28
2019-01-12T17:20:03.368Z,1013.33
2019-01-12T17:25:02.784Z,1013.34
2019-01-12T17:30:03.135Z,1013.39
2019-01-12T17:35:02.543Z,1013.39
2019-01-12T17:40:02.189Z,1013.5
2019-01-12T17:45:02.607Z,1013.49
2019-01-12T17:50:02.947Z,1013.54
2019-01-12T17:55:03.282Z,1013.53
2019-01-12T18:00:02.709Z,1013.58
2019-01-12T18:05:03.056Z,1013.53
2019-01-12T18:10:02.467Z,1013.62
2019-01-12T18:15:02.807Z,1013.59
2019-01-12T18:20:03.252Z,1013.54
2019-01-12T18:25:02.674Z,1013.52
2019-01-12T18:30:03.119Z,1013.63
2019-01-12T18:35:02.426Z,1013.6
2019-01-12T18:40:02.875Z,1013.62
2019-01-12T18:45:03.371Z,1013.64
2019-01-12T18:50:02.679Z,1013.63
2019-01-12T18:55:03.119Z,1013.46
2019-01-12T19:00:02.528Z,1013.74
2019-01-12T19:05:02.956Z,1013.67
2019-01-12T19:10:02.461Z,1013.59
2019-01-12T19:15:02.905Z,1013.58
2019-01-12T19:20:03.359Z,1013.67
2019-01-12T19:25:02.772Z,1013.65
2019-01-12T19:30:03.135Z,1013.59
2019-01-12T19:35:02.541Z,1013.55
2019-01-12T19:40:02.985Z,1013.53
2019-01-12T19:45:02.395Z,1013.46
2019-01-12T19:50:02.835Z,1013.42
2019-01-12T19:55:03.205Z,1013.33
2019-01-12T20:00:02.626Z,1013.33
2019-01-12T20:05:03.047Z,1013.27
2019-01-12T20:10:02.563Z,1013.26
2019-01-12T20:15:02.108Z,1013.16
2019-01-12T20:20:02.533Z,1013.11
2019-01-12T20:25:02.867Z,1013.08
2019-01-12T20:30:03.453Z,1013.12
2019-01-12T20:35:02.824Z,1013.12
2019-01-12T20:40:02.469Z,1013.17
2019-01-12T20:45:02.905Z,1013.13
2019-01-12T20:50:03.241Z,1013.11
2019-01-12T20:55:02.670Z,1013.0
2019-01-12T21:00:03.137Z,1012.99
2019-01-12T21:05:02.520Z,1012.98
2019-01-12T21:10:02.959Z,1013.13
2019-01-12T21:15:03.500Z,1012.91
2019-01-12T21:20:02.927Z,1012.93
2019-01-12T21:25:03.290Z,1012.89
2019-01-12T21:30:02.683Z,1012.87
2019-01-12T21:35:03.035Z,1012.87
2019-01-12T21:40:02.443Z,1012.83
2019-01-12T21:45:02.825Z,1012.78
2019-01-12T21:50:03.245Z,1012.79
2019-01-12T21:55:02.652Z,1012.77
2019-01-12T22:00:02.986Z,1012.89
2019-01-12T22:05:02.410Z,1012.8
2019-01-12T22:10:02.860Z,1012.88
2019-01-12T22:15:03.198Z,1012.86
2019-01-12T22:20:02.609Z,1012.98
2019-01-12T22:25:02.959Z,1012.93
2019-01-12T22:30:03.603Z,1012.89
2019-01-12T22:35:02.938Z,1012.84
2019-01-12T22:40:02.444Z,1012.81
2019-01-12T22:45:02.923Z,1012.76
2019-01-12T22:50:03.250Z,1012.71
2019-01-12T22:55:02.649Z,1012.59
2019-01-12T23:00:03.090Z,1012.68
2019-01-12T23:05:02.503Z,1012.54
2019-01-12T23:10:02.953Z,1012.53
2019-01-12T23:15:03.298Z,1012.5
2019-01-12T23:20:02.708Z,1012.47
2019-01-12T23:25:03.050Z,1012.45
2019-01-12T23:30:04.605Z,1012.56
2019-01-12T23:35:03.331Z,1012.52
2019-01-12T23:40:02.735Z,1012.56
2019-01-12T23:45:03.132Z,1012.58
2019-01-12T23:50:02.516Z,1012.41
2019-01-12T23:55:02.953Z,1012.46
